sensor_id;sensor_type;location;lat;lon;timestamp;pressure;altitude;pressure_sealevel;temperature;humidity
36404;BME280;22437;55.646;37.518;2022-07-19T00:00:18;98542.63;;;14.91;60.14
36404;BME280;22437;55.646;37.518;2022-07-19T00:02:48;98544.56;;;14.86;60.15
36404;BME280;22437;55.646;37.518;2022-07-19T00:05:17;98538.28;;;14.86;60.50
36404;BME280;22437;55.646;37.518;2022-07-19T00:07:46;98549.63;;;14.81;60.15
36404;BME280;22437;55.646;37.518;2022-07-19T00:10:18;98538.66;;;14.81;60.67
36404;BME280;22437;55.646;37.518;2022-07-19T00:12:48;98543.31;;;14.73;60.85
36404;BME280;22437;55.646;37.518;2022-07-19T00:15:17;98535.09;;;14.73;60.69
36404;BME280;22437;55.646;37.518;2022-07-19T00:17:48;98537.06;;;14.76;60.82
36404;BME280;22437;55.646;37.518;2022-07-19T00:20:18;98538.63;;;14.74;61.00
36404;BME280;22437;55.646;37.518;2022-07-19T00:22:48;98537.41;;;14.71;60.99
36404;BME280;22437;55.646;37.518;2022-07-19T00:25:18;98540.13;;;14.64;61.47
36404;BME280;22437;55.646;37.518;2022-07-19T00:27:47;98535.00;;;14.59;61.25
36404;BME280;22437;55.646;37.518;2022-07-19T00:30:16;98546.31;;;14.57;61.31
36404;BME280;22437;55.646;37.518;2022-07-19T00:32:45;98533.38;;;14.54;61.43
36404;BME280;22437;55.646;37.518;2022-07-19T00:35:14;98534.91;;;14.52;61.54
36404;BME280;22437;55.646;37.518;2022-07-19T00:37:43;98539.97;;;14.49;61.48
36404;BME280;22437;55.646;37.518;2022-07-19T00:40:19;98543.09;;;14.48;61.62
36404;BME280;22437;55.646;37.518;2022-07-19T00:42:51;98542.28;;;14.44;62.31
36404;BME280;22437;55.646;37.518;2022-07-19T00:45:22;98548.50;;;14.37;62.09
36404;BME280;22437;55.646;37.518;2022-07-19T00:47:51;98540.66;;;14.36;62.37
36404;BME280;22437;55.646;37.518;2022-07-19T00:50:20;98539.88;;;14.35;62.29
36404;BME280;22437;55.646;37.518;2022-07-19T00:52:51;98539.91;;;14.39;62.34
36404;BME280;22437;55.646;37.518;2022-07-19T00:55:22;98541.84;;;14.38;62.29
36404;BME280;22437;55.646;37.518;2022-07-19T00:57:55;98537.88;;;14.32;62.68
36404;BME280;22437;55.646;37.518;2022-07-19T01:00:26;98539.06;;;14.35;62.44
36404;BME280;22437;55.646;37.518;2022-07-19T01:02:55;98542.63;;;14.35;62.20
36404;BME280;22437;55.646;37.518;2022-07-19T01:05:24;98541.00;;;14.30;62.38
36404;BME280;22437;55.646;37.518;2022-07-19T01:07:53;98544.50;;;14.31;62.27
36404;BME280;22437;55.646;37.518;2022-07-19T01:10:22;98536.31;;;14.31;62.23
36404;BME280;22437;55.646;37.518;2022-07-19T01:12:51;98539.44;;;14.29;62.41
36404;BME280;22437;55.646;37.518;2022-07-19T01:15:24;98533.22;;;14.36;62.46
36404;BME280;22437;55.646;37.518;2022-07-19T01:17:54;98537.91;;;14.36;62.18
36404;BME280;22437;55.646;37.518;2022-07-19T01:20:23;98543.84;;;14.41;62.09
36404;BME280;22437;55.646;37.518;2022-07-19T01:22:58;98536.84;;;14.47;61.67
36404;BME280;22437;55.646;37.518;2022-07-19T01:25:29;98542.75;;;14.53;61.77
36404;BME280;22437;55.646;37.518;2022-07-19T01:27:59;98539.69;;;14.58;61.62
36404;BME280;22437;55.646;37.518;2022-07-19T01:30:27;98551.78;;;14.57;61.48
36404;BME280;22437;55.646;37.518;2022-07-19T01:32:57;98542.81;;;14.60;61.38
36404;BME280;22437;55.646;37.518;2022-07-19T01:35:25;98538.91;;;14.61;61.06
36404;BME280;22437;55.646;37.518;2022-07-19T01:37:57;98539.69;;;14.58;61.44
36404;BME280;22437;55.646;37.518;2022-07-19T01:40:26;98538.81;;;14.51;61.36
36404;BME280;22437;55.646;37.518;2022-07-19T01:42:55;98543.88;;;14.48;61.74
36404;BME280;22437;55.646;37.518;2022-07-19T01:45:24;98548.13;;;14.39;61.78
36404;BME280;22437;55.646;37.518;2022-07-19T01:47:53;98551.63;;;14.39;61.87
36404;BME280;22437;55.646;37.518;2022-07-19T01:50:21;98548.50;;;14.37;61.88
36404;BME280;22437;55.646;37.518;2022-07-19T01:52:50;98552.78;;;14.38;61.74
36404;BME280;22437;55.646;37.518;2022-07-19T01:55:21;98555.59;;;14.45;61.86
36404;BME280;22437;55.646;37.518;2022-07-19T01:57:50;98554.88;;;14.52;61.61
36404;BME280;22437;55.646;37.518;2022-07-19T02:00:19;98551.81;;;14.61;61.41
36404;BME280;22437;55.646;37.518;2022-07-19T02:02:47;98548.75;;;14.66;61.48
36404;BME280;22437;55.646;37.518;2022-07-19T02:05:16;98551.16;;;14.78;60.94
36404;BME280;22437;55.646;37.518;2022-07-19T02:07:46;98550.03;;;14.86;60.82
36404;BME280;22437;55.646;37.518;2022-07-19T02:10:15;98557.47;;;14.90;60.37
36404;BME280;22437;55.646;37.518;2022-07-19T02:12:46;98555.19;;;14.99;60.41
36404;BME280;22437;55.646;37.518;2022-07-19T02:15:15;98555.94;;;14.96;60.01
36404;BME280;22437;55.646;37.518;2022-07-19T02:17:44;98561.06;;;15.01;60.13
36404;BME280;22437;55.646;37.518;2022-07-19T02:20:13;98561.06;;;15.01;60.16
36404;BME280;22437;55.646;37.518;2022-07-19T02:22:42;98568.94;;;15.06;59.88
36404;BME280;22437;55.646;37.518;2022-07-19T02:25:11;98571.69;;;15.10;59.73
36404;BME280;22437;55.646;37.518;2022-07-19T02:27:40;98569.69;;;15.03;59.63
36404;BME280;22437;55.646;37.518;2022-07-19T02:30:12;98568.59;;;15.18;59.58
36404;BME280;22437;55.646;37.518;2022-07-19T02:32:41;98566.91;;;15.80;58.00
36404;BME280;22437;55.646;37.518;2022-07-19T02:35:11;98574.09;;;15.22;58.49
36404;BME280;22437;55.646;37.518;2022-07-19T02:37:40;98581.16;;;15.19;58.95
36404;BME280;22437;55.646;37.518;2022-07-19T02:40:10;98577.59;;;15.15;58.84
36404;BME280;22437;55.646;37.518;2022-07-19T02:42:38;98574.47;;;15.17;59.01
36404;BME280;22437;55.646;37.518;2022-07-19T02:45:08;98573.25;;;15.11;58.80
36404;BME280;22437;55.646;37.518;2022-07-19T02:47:38;98578.81;;;15.21;58.78
36404;BME280;22437;55.646;37.518;2022-07-19T02:50:07;98575.25;;;15.21;58.74
36404;BME280;22437;55.646;37.518;2022-07-19T02:52:37;98569.03;;;15.24;58.58
36404;BME280;22437;55.646;37.518;2022-07-19T02:55:06;98572.94;;;15.23;58.54
36404;BME280;22437;55.646;37.518;2022-07-19T02:57:36;98576.41;;;15.16;58.66
36404;BME280;22437;55.646;37.518;2022-07-19T03:00:07;98581.06;;;15.08;59.01
36404;BME280;22437;55.646;37.518;2022-07-19T03:02:37;98578.78;;;15.18;59.10
36404;BME280;22437;55.646;37.518;2022-07-19T03:05:07;98578.72;;;15.07;59.07
36404;BME280;22437;55.646;37.518;2022-07-19T03:07:36;98583.34;;;14.96;59.24
36404;BME280;22437;55.646;37.518;2022-07-19T03:10:06;98577.06;;;14.92;59.53
36404;BME280;22437;55.646;37.518;2022-07-19T03:12:35;98578.16;;;14.80;59.61
36404;BME280;22437;55.646;37.518;2022-07-19T03:15:05;98582.06;;;14.75;60.09
36404;BME280;22437;55.646;37.518;2022-07-19T03:17:34;98575.03;;;14.78;60.16
36404;BME280;22437;55.646;37.518;2022-07-19T03:20:05;98585.72;;;15.01;59.94
36404;BME280;22437;55.646;37.518;2022-07-19T03:22:34;98578.81;;;15.25;59.01
36404;BME280;22437;55.646;37.518;2022-07-19T03:25:04;98576.63;;;15.63;58.21
36404;BME280;22437;55.646;37.518;2022-07-19T03:27:34;98572.78;;;15.85;57.27
36404;BME280;22437;55.646;37.518;2022-07-19T03:30:03;98577.13;;;16.01;56.76
36404;BME280;22437;55.646;37.518;2022-07-19T03:32:32;98580.66;;;15.91;56.76
36404;BME280;22437;55.646;37.518;2022-07-19T03:35:01;98575.16;;;15.94;56.79
36404;BME280;22437;55.646;37.518;2022-07-19T03:37:31;98578.69;;;15.91;57.24
36404;BME280;22437;55.646;37.518;2022-07-19T03:40:00;98588.84;;;15.83;57.00
36404;BME280;22437;55.646;37.518;2022-07-19T03:42:29;98592.00;;;15.85;57.50
36404;BME280;22437;55.646;37.518;2022-07-19T03:44:58;98586.13;;;15.87;57.30
36404;BME280;22437;55.646;37.518;2022-07-19T03:47:29;98586.88;;;15.73;57.52
36404;BME280;22437;55.646;37.518;2022-07-19T03:49:57;98588.44;;;15.74;57.69
36404;BME280;22437;55.646;37.518;2022-07-19T03:52:26;98584.47;;;15.68;57.70
36404;BME280;22437;55.646;37.518;2022-07-19T03:54:56;98586.09;;;15.80;57.52
36404;BME280;22437;55.646;37.518;2022-07-19T03:57:25;98578.28;;;15.75;57.60
36404;BME280;22437;55.646;37.518;2022-07-19T03:59:54;98592.72;;;15.72;57.71
36404;BME280;22437;55.646;37.518;2022-07-19T04:02:23;98596.22;;;15.65;57.92
36404;BME280;22437;55.646;37.518;2022-07-19T04:04:52;98594.75;;;15.78;57.42
36404;BME280;22437;55.646;37.518;2022-07-19T04:07:22;98593.91;;;15.74;57.53
36404;BME280;22437;55.646;37.518;2022-07-19T04:09:51;98600.94;;;15.68;57.73
36404;BME280;22437;55.646;37.518;2022-07-19T04:12:21;98588.72;;;15.55;58.25
36404;BME280;22437;55.646;37.518;2022-07-19T04:14:50;98592.25;;;15.52;58.21
36404;BME280;22437;55.646;37.518;2022-07-19T04:17:19;98587.59;;;15.59;58.03
36404;BME280;22437;55.646;37.518;2022-07-19T04:19:48;98587.22;;;15.72;58.09
36404;BME280;22437;55.646;37.518;2022-07-19T04:22:17;98594.34;;;15.80;57.73
36404;BME280;22437;55.646;37.518;2022-07-19T04:24:46;98595.53;;;15.90;57.79
36404;BME280;22437;55.646;37.518;2022-07-19T04:27:14;98590.84;;;15.90;57.72
36404;BME280;22437;55.646;37.518;2022-07-19T04:29:45;98583.41;;;15.94;57.70
36404;BME280;22437;55.646;37.518;2022-07-19T04:32:14;98592.41;;;15.91;57.67
36404;BME280;22437;55.646;37.518;2022-07-19T04:34:47;98587.72;;;16.02;57.29
36404;BME280;22437;55.646;37.518;2022-07-19T04:37:16;98592.81;;;16.00;57.19
36404;BME280;22437;55.646;37.518;2022-07-19T04:39:45;98600.22;;;15.82;57.72
36404;BME280;22437;55.646;37.518;2022-07-19T04:42:13;98596.34;;;15.90;58.02
36404;BME280;22437;55.646;37.518;2022-07-19T04:44:42;98595.09;;;15.73;58.08
36404;BME280;22437;55.646;37.518;2022-07-19T04:47:13;98593.50;;;15.72;58.44
36404;BME280;22437;55.646;37.518;2022-07-19T04:49:42;98597.13;;;15.91;58.22
36404;BME280;22437;55.646;37.518;2022-07-19T04:52:11;98588.13;;;16.12;56.89
36404;BME280;22437;55.646;37.518;2022-07-19T04:54:40;98590.13;;;16.76;55.10
36404;BME280;22437;55.646;37.518;2022-07-19T04:57:09;98587.78;;;16.74;54.70
36404;BME280;22437;55.646;37.518;2022-07-19T04:59:38;98591.72;;;16.95;54.23
36404;BME280;22437;55.646;37.518;2022-07-19T05:02:07;98587.75;;;16.99;54.83
36404;BME280;22437;55.646;37.518;2022-07-19T05:04:37;98586.56;;;17.11;53.92
36404;BME280;22437;55.646;37.518;2022-07-19T05:07:06;98585.38;;;17.12;53.72
36404;BME280;22437;55.646;37.518;2022-07-19T05:09:35;98579.03;;;17.30;53.57
36404;BME280;22437;55.646;37.518;2022-07-19T05:12:04;98582.84;;;17.61;52.58
36404;BME280;22437;55.646;37.518;2022-07-19T05:14:34;98574.94;;;17.67;52.21
36404;BME280;22437;55.646;37.518;2022-07-19T05:17:06;98581.22;;;17.74;51.71
36404;BME280;22437;55.646;37.518;2022-07-19T05:19:36;98575.66;;;17.89;51.58
36404;BME280;22437;55.646;37.518;2022-07-19T05:22:05;98586.63;;;17.96;51.41
36404;BME280;22437;55.646;37.518;2022-07-19T05:24:34;98578.78;;;17.94;50.79
36404;BME280;22437;55.646;37.518;2022-07-19T05:27:03;98572.25;;;18.30;50.33
36404;BME280;22437;55.646;37.518;2022-07-19T05:29:32;98576.53;;;18.34;50.33
36404;BME280;22437;55.646;37.518;2022-07-19T05:32:01;98579.16;;;18.49;49.07
36404;BME280;22437;55.646;37.518;2022-07-19T05:34:30;98583.56;;;18.43;49.55
36404;BME280;22437;55.646;37.518;2022-07-19T05:37:00;98584.72;;;18.42;49.72
36404;BME280;22437;55.646;37.518;2022-07-19T05:39:29;98588.00;;;18.26;49.66
36404;BME280;22437;55.646;37.518;2022-07-19T05:41:57;98585.97;;;18.37;49.70
36404;BME280;22437;55.646;37.518;2022-07-19T05:44:26;98582.06;;;18.31;49.33
36404;BME280;22437;55.646;37.518;2022-07-19T05:46:55;98585.34;;;18.64;48.36
36404;BME280;22437;55.646;37.518;2022-07-19T05:49:24;98589.50;;;18.86;48.05
36404;BME280;22437;55.646;37.518;2022-07-19T05:51:54;98587.97;;;18.82;47.78
36404;BME280;22437;55.646;37.518;2022-07-19T05:54:24;98585.53;;;19.29;47.17
36404;BME280;22437;55.646;37.518;2022-07-19T05:56:53;98590.88;;;19.43;46.73
36404;BME280;22437;55.646;37.518;2022-07-19T05:59:21;98588.31;;;19.60;45.91
36404;BME280;22437;55.646;37.518;2022-07-19T06:01:50;98581.13;;;19.66;45.96
36404;BME280;22437;55.646;37.518;2022-07-19T06:04:19;98584.69;;;19.66;45.13
36404;BME280;22437;55.646;37.518;2022-07-19T06:06:48;98582.34;;;19.95;44.89
36404;BME280;22437;55.646;37.518;2022-07-19T06:09:17;98583.78;;;19.77;45.47
36404;BME280;22437;55.646;37.518;2022-07-19T06:11:48;98584.88;;;19.83;45.39
36404;BME280;22437;55.646;37.518;2022-07-19T06:14:17;98576.81;;;19.34;45.17
36404;BME280;22437;55.646;37.518;2022-07-19T06:16:46;98585.63;;;19.52;45.55
36404;BME280;22437;55.646;37.518;2022-07-19T06:19:15;98588.66;;;19.31;45.63
36404;BME280;22437;55.646;37.518;2022-07-19T06:21:43;98589.47;;;19.28;44.77
36404;BME280;22437;55.646;37.518;2022-07-19T06:24:12;98587.84;;;19.34;44.93
36404;BME280;22437;55.646;37.518;2022-07-19T06:26:41;98589.69;;;19.06;44.89
36404;BME280;22437;55.646;37.518;2022-07-19T06:29:12;98580.16;;;19.14;46.27
36404;BME280;22437;55.646;37.518;2022-07-19T06:31:40;98588.44;;;19.49;44.55
36404;BME280;22437;55.646;37.518;2022-07-19T06:34:09;98595.09;;;19.86;42.81
36404;BME280;22437;55.646;37.518;2022-07-19T06:36:39;98591.56;;;19.85;42.04
36404;BME280;22437;55.646;37.518;2022-07-19T06:39:08;98580.34;;;19.96;41.70
36404;BME280;22437;55.646;37.518;2022-07-19T06:41:37;98585.66;;;20.38;41.55
36404;BME280;22437;55.646;37.518;2022-07-19T06:44:18;98595.75;;;20.75;41.17
36404;BME280;22437;55.646;37.518;2022-07-19T06:46:47;98591.41;;;20.74;40.86
36404;BME280;22437;55.646;37.518;2022-07-19T06:49:21;98593.66;;;20.83;39.77
36404;BME280;22437;55.646;37.518;2022-07-19T06:51:50;98597.69;;;20.51;40.45
36404;BME280;22437;55.646;37.518;2022-07-19T06:54:19;98587.00;;;21.00;39.92
36404;BME280;22437;55.646;37.518;2022-07-19T06:56:48;98587.44;;;21.19;39.30
36404;BME280;22437;55.646;37.518;2022-07-19T06:59:18;98575.38;;;20.89;39.37
36404;BME280;22437;55.646;37.518;2022-07-19T07:01:48;98587.06;;;20.73;39.93
36404;BME280;22437;55.646;37.518;2022-07-19T07:04:17;98592.19;;;20.75;39.40
36404;BME280;22437;55.646;37.518;2022-07-19T07:06:57;98598.00;;;20.33;40.47
36404;BME280;22437;55.646;37.518;2022-07-19T07:09:25;98590.22;;;20.48;40.75
36404;BME280;22437;55.646;37.518;2022-07-19T07:11:54;98586.81;;;21.31;39.36
36404;BME280;22437;55.646;37.518;2022-07-19T07:14:24;98588.19;;;22.36;36.58
36404;BME280;22437;55.646;37.518;2022-07-19T07:16:53;98583.19;;;22.93;34.49
36404;BME280;22437;55.646;37.518;2022-07-19T07:19:22;98581.50;;;23.28;34.32
36404;BME280;22437;55.646;37.518;2022-07-19T07:21:51;98585.22;;;23.51;33.67
36404;BME280;22437;55.646;37.518;2022-07-19T07:24:20;98580.59;;;22.20;35.75
36404;BME280;22437;55.646;37.518;2022-07-19T07:26:49;98586.38;;;21.93;36.83
36404;BME280;22437;55.646;37.518;2022-07-19T07:29:18;98589.94;;;22.09;37.10
36404;BME280;22437;55.646;37.518;2022-07-19T07:31:48;98593.91;;;23.53;34.95
36404;BME280;22437;55.646;37.518;2022-07-19T07:34:17;98580.53;;;24.02;33.45
36404;BME280;22437;55.646;37.518;2022-07-19T07:36:46;98600.13;;;24.63;31.88
36404;BME280;22437;55.646;37.518;2022-07-19T07:39:16;98594.09;;;24.00;32.87
36404;BME280;22437;55.646;37.518;2022-07-19T07:41:45;98596.44;;;23.18;34.44
36404;BME280;22437;55.646;37.518;2022-07-19T07:44:24;98595.22;;;22.04;36.75
36404;BME280;22437;55.646;37.518;2022-07-19T07:46:55;98603.09;;;22.42;35.53
36404;BME280;22437;55.646;37.518;2022-07-19T07:49:24;98594.38;;;23.77;33.53
36404;BME280;22437;55.646;37.518;2022-07-19T07:51:55;98591.28;;;24.65;30.88
36404;BME280;22437;55.646;37.518;2022-07-19T07:54:25;98596.03;;;23.74;31.55
36404;BME280;22437;55.646;37.518;2022-07-19T07:56:54;98590.81;;;23.76;32.69
36404;BME280;22437;55.646;37.518;2022-07-19T07:59:22;98599.31;;;24.62;31.62
36404;BME280;22437;55.646;37.518;2022-07-19T08:01:51;98597.28;;;23.31;33.21
36404;BME280;22437;55.646;37.518;2022-07-19T08:04:27;98592.66;;;23.54;33.13
36404;BME280;22437;55.646;37.518;2022-07-19T08:06:56;98597.81;;;23.68;33.22
36404;BME280;22437;55.646;37.518;2022-07-19T08:09:25;98598.44;;;23.89;31.63
36404;BME280;22437;55.646;37.518;2022-07-19T08:11:54;98607.66;;;24.50;30.39
36404;BME280;22437;55.646;37.518;2022-07-19T08:14:22;98596.31;;;25.39;29.17
36404;BME280;22437;55.646;37.518;2022-07-19T08:16:51;98598.56;;;26.07;28.22
36404;BME280;22437;55.646;37.518;2022-07-19T08:19:20;98597.91;;;25.28;28.52
36404;BME280;22437;55.646;37.518;2022-07-19T08:21:51;98607.22;;;24.26;31.19
36404;BME280;22437;55.646;37.518;2022-07-19T08:24:19;98607.53;;;24.79;28.39
36404;BME280;22437;55.646;37.518;2022-07-19T08:26:48;98603.91;;;26.24;26.79
36404;BME280;22437;55.646;37.518;2022-07-19T08:29:17;98606.75;;;26.02;27.18
36404;BME280;22437;55.646;37.518;2022-07-19T08:31:46;98605.19;;;25.47;27.42
36404;BME280;22437;55.646;37.518;2022-07-19T08:34:15;98604.81;;;26.21;26.87
36404;BME280;22437;55.646;37.518;2022-07-19T08:36:44;98606.94;;;27.34;24.55
36404;BME280;22437;55.646;37.518;2022-07-19T08:39:14;98609.66;;;26.70;24.68
36404;BME280;22437;55.646;37.518;2022-07-19T08:41:44;98597.44;;;26.36;26.12
36404;BME280;22437;55.646;37.518;2022-07-19T08:44:13;98602.91;;;26.49;25.43
36404;BME280;22437;55.646;37.518;2022-07-19T08:46:43;98607.19;;;27.00;25.41
36404;BME280;22437;55.646;37.518;2022-07-19T08:49:12;98596.19;;;26.87;25.58
36404;BME280;22437;55.646;37.518;2022-07-19T08:51:42;98593.09;;;27.12;24.94
36404;BME280;22437;55.646;37.518;2022-07-19T08:54:11;98588.91;;;27.26;24.16
36404;BME280;22437;55.646;37.518;2022-07-19T08:56:42;98589.28;;;26.51;24.18
36404;BME280;22437;55.646;37.518;2022-07-19T08:59:28;98599.97;;;24.67;27.77
36404;BME280;22437;55.646;37.518;2022-07-19T09:01:58;98601.03;;;23.67;30.15
36404;BME280;22437;55.646;37.518;2022-07-19T09:04:27;98595.44;;;23.54;30.74
36404;BME280;22437;55.646;37.518;2022-07-19T09:06:58;98602.25;;;23.65;30.26
36404;BME280;22437;55.646;37.518;2022-07-19T09:09:28;98596.72;;;24.81;29.92
36404;BME280;22437;55.646;37.518;2022-07-19T09:11:59;98595.88;;;24.58;30.07
36404;BME280;22437;55.646;37.518;2022-07-19T09:14:30;98589.63;;;23.90;31.18
36404;BME280;22437;55.646;37.518;2022-07-19T09:17:01;98592.66;;;24.21;29.97
36404;BME280;22437;55.646;37.518;2022-07-19T09:19:33;98588.97;;;25.11;29.55
36404;BME280;22437;55.646;37.518;2022-07-19T09:22:04;98582.34;;;25.84;27.92
36404;BME280;22437;55.646;37.518;2022-07-19T09:24:35;98593.13;;;25.28;28.76
36404;BME280;22437;55.646;37.518;2022-07-19T09:27:07;98598.22;;;24.34;30.03
36404;BME280;22437;55.646;37.518;2022-07-19T09:29:38;98589.63;;;23.77;30.28
36404;BME280;22437;55.646;37.518;2022-07-19T09:32:10;98589.72;;;23.32;31.06
36404;BME280;22437;55.646;37.518;2022-07-19T09:34:39;98598.97;;;23.83;30.59
36404;BME280;22437;55.646;37.518;2022-07-19T09:37:15;98592.84;;;22.72;32.62
36404;BME280;22437;55.646;37.518;2022-07-19T09:39:46;98595.38;;;22.33;33.54
36404;BME280;22437;55.646;37.518;2022-07-19T09:42:20;98599.31;;;22.16;34.38
36404;BME280;22437;55.646;37.518;2022-07-19T09:44:58;98590.81;;;22.06;34.72
36404;BME280;22437;55.646;37.518;2022-07-19T09:47:31;98591.34;;;22.01;35.12
36404;BME280;22437;55.646;37.518;2022-07-19T09:50:03;98595.00;;;21.78;35.84
36404;BME280;22437;55.646;37.518;2022-07-19T09:52:33;98591.97;;;21.73;35.14
36404;BME280;22437;55.646;37.518;2022-07-19T09:55:11;98587.53;;;21.75;35.31
36404;BME280;22437;55.646;37.518;2022-07-19T09:57:43;98575.72;;;21.91;35.56
36404;BME280;22437;55.646;37.518;2022-07-19T10:00:13;98587.75;;;21.84;35.43
36404;BME280;22437;55.646;37.518;2022-07-19T10:02:44;98581.44;;;22.53;34.58
36404;BME280;22437;55.646;37.518;2022-07-19T10:05:16;98583.81;;;22.84;33.79
36404;BME280;22437;55.646;37.518;2022-07-19T10:07:45;98581.34;;;23.19;33.51
36404;BME280;22437;55.646;37.518;2022-07-19T10:10:16;98577.69;;;23.22;32.59
36404;BME280;22437;55.646;37.518;2022-07-19T10:12:48;98580.75;;;23.11;33.60
36404;BME280;22437;55.646;37.518;2022-07-19T10:15:19;98578.84;;;22.62;34.01
36404;BME280;22437;55.646;37.518;2022-07-19T10:20:38;98580.50;;;21.70;35.89
36404;BME280;22437;55.646;37.518;2022-07-19T10:23:07;98584.78;;;21.75;35.35
36404;BME280;22437;55.646;37.518;2022-07-19T10:25:42;98595.56;;;21.49;37.45
36404;BME280;22437;55.646;37.518;2022-07-19T10:28:31;98601.91;;;20.59;42.49
36404;BME280;22437;55.646;37.518;2022-07-19T10:31:30;98589.44;;;20.24;45.70
36404;BME280;22437;55.646;37.518;2022-07-19T10:34:05;98594.50;;;20.52;44.65
36404;BME280;22437;55.646;37.518;2022-07-19T10:36:41;98587.44;;;21.19;42.19
36404;BME280;22437;55.646;37.518;2022-07-19T10:39:22;98582.97;;;22.71;40.50
36404;BME280;22437;55.646;37.518;2022-07-19T10:42:14;98588.63;;;24.48;36.64
36404;BME280;22437;55.646;37.518;2022-07-19T10:45:13;98584.41;;;25.04;35.11
36404;BME280;22437;55.646;37.518;2022-07-19T10:48:05;98579.41;;;25.87;33.06
36404;BME280;22437;55.646;37.518;2022-07-19T10:50:53;98576.34;;;25.41;33.31
36404;BME280;22437;55.646;37.518;2022-07-19T10:53:56;98573.38;;;25.35;33.33
36404;BME280;22437;55.646;37.518;2022-07-19T10:56:42;98578.78;;;24.82;33.50
36404;BME280;22437;55.646;37.518;2022-07-19T10:59:32;98569.50;;;26.86;29.66
36404;BME280;22437;55.646;37.518;2022-07-19T11:02:02;98570.91;;;27.18;29.03
36404;BME280;22437;55.646;37.518;2022-07-19T11:04:52;98565.13;;;28.44;25.55
36404;BME280;22437;55.646;37.518;2022-07-19T11:07:22;98572.78;;;28.67;24.03
36404;BME280;22437;55.646;37.518;2022-07-19T11:09:54;98564.97;;;28.14;25.10
36404;BME280;22437;55.646;37.518;2022-07-19T11:12:29;98566.47;;;28.24;24.88
36404;BME280;22437;55.646;37.518;2022-07-19T11:15:00;98560.47;;;29.13;23.34
36404;BME280;22437;55.646;37.518;2022-07-19T11:17:58;98561.00;;;29.56;22.69
36404;BME280;22437;55.646;37.518;2022-07-19T11:20:29;98563.97;;;29.38;21.75
36404;BME280;22437;55.646;37.518;2022-07-19T11:23:00;98559.75;;;29.87;21.32
36404;BME280;22437;55.646;37.518;2022-07-19T11:25:32;98554.81;;;30.32;21.14
36404;BME280;22437;55.646;37.518;2022-07-19T11:28:03;98550.44;;;30.46;20.90
36404;BME280;22437;55.646;37.518;2022-07-19T11:30:33;98555.91;;;30.35;21.19
36404;BME280;22437;55.646;37.518;2022-07-19T11:33:05;98550.94;;;31.58;21.33
36404;BME280;22437;55.646;37.518;2022-07-19T11:35:53;98550.41;;;30.67;21.40
36404;BME280;22437;55.646;37.518;2022-07-19T11:38:22;98553.84;;;27.34;24.00
36404;BME280;22437;55.646;37.518;2022-07-19T11:40:52;98545.97;;;28.18;23.41
36404;BME280;22437;55.646;37.518;2022-07-19T11:43:24;98551.66;;;28.33;24.01
36404;BME280;22437;55.646;37.518;2022-07-19T11:45:54;98543.09;;;29.98;21.69
36404;BME280;22437;55.646;37.518;2022-07-19T11:48:26;98540.25;;;28.70;22.98
36404;BME280;22437;55.646;37.518;2022-07-19T11:51:04;98553.38;;;26.62;25.96
36404;BME280;22437;55.646;37.518;2022-07-19T11:53:36;98547.50;;;25.13;26.94
36404;BME280;22437;55.646;37.518;2022-07-19T11:56:16;98543.41;;;25.39;28.29
36404;BME280;22437;55.646;37.518;2022-07-19T11:58:45;98544.69;;;26.88;26.34
36404;BME280;22437;55.646;37.518;2022-07-19T12:01:23;98542.41;;;28.18;24.88
36404;BME280;22437;55.646;37.518;2022-07-19T12:03:55;98535.06;;;27.17;26.01
36404;BME280;22437;55.646;37.518;2022-07-19T12:06:35;98535.22;;;28.50;24.94
36404;BME280;22437;55.646;37.518;2022-07-19T12:09:07;98533.94;;;29.83;23.52
36404;BME280;22437;55.646;37.518;2022-07-19T12:11:40;98529.63;;;30.02;22.01
36404;BME280;22437;55.646;37.518;2022-07-19T12:14:18;98532.75;;;28.76;24.38
36404;BME280;22437;55.646;37.518;2022-07-19T12:16:48;98524.84;;;26.95;25.65
36404;BME280;22437;55.646;37.518;2022-07-19T12:19:18;98533.88;;;25.90;27.49
36404;BME280;22437;55.646;37.518;2022-07-19T12:21:47;98539.81;;;25.39;27.59
36404;BME280;22437;55.646;37.518;2022-07-19T12:24:18;98534.09;;;24.76;29.24
36404;BME280;22437;55.646;37.518;2022-07-19T12:27:03;98528.38;;;24.80;28.81
36404;BME280;22437;55.646;37.518;2022-07-19T12:29:34;98539.41;;;23.97;29.37
36404;BME280;22437;55.646;37.518;2022-07-19T12:32:04;98543.59;;;24.40;29.85
36404;BME280;22437;55.646;37.518;2022-07-19T12:34:46;98548.88;;;22.86;33.75
36404;BME280;22437;55.646;37.518;2022-07-19T12:37:20;98560.41;;;21.66;37.41
36404;BME280;22437;55.646;37.518;2022-07-19T12:40:04;98567.88;;;21.09;38.86
36404;BME280;22437;55.646;37.518;2022-07-19T12:42:36;98562.84;;;20.81;39.90
36404;BME280;22437;55.646;37.518;2022-07-19T12:45:06;98566.13;;;20.76;40.51
36404;BME280;22437;55.646;37.518;2022-07-19T12:47:36;98566.16;;;20.48;41.32
36404;BME280;22437;55.646;37.518;2022-07-19T12:50:09;98576.00;;;20.49;42.16
36404;BME280;22437;55.646;37.518;2022-07-19T12:52:46;98560.69;;;20.45;42.77
36404;BME280;22437;55.646;37.518;2022-07-19T12:55:15;98561.34;;;20.52;42.29
36404;BME280;22437;55.646;37.518;2022-07-19T12:57:46;98556.00;;;20.65;42.13
36404;BME280;22437;55.646;37.518;2022-07-19T13:00:17;98553.88;;;20.49;41.58
36404;BME280;22437;55.646;37.518;2022-07-19T13:02:47;98558.47;;;20.60;42.00
36404;BME280;22437;55.646;37.518;2022-07-19T13:05:19;98558.06;;;20.61;41.78
36404;BME280;22437;55.646;37.518;2022-07-19T13:07:50;98558.94;;;21.02;41.36
36404;BME280;22437;55.646;37.518;2022-07-19T13:10:19;98557.16;;;21.11;41.63
36404;BME280;22437;55.646;37.518;2022-07-19T13:12:48;98550.84;;;21.51;41.15